Archival Weather

Chicago O'Hare International

Chicago, Illinois (KORD)

Report from: Thursday, March 21, 2024 1:51 AM CDT
Current time: Tuesday, May 21, 2024 11:29 AM CDT

Current weather – Weather history – Daily summaries
Weather forecast

Temperature-1.1°C (30.0°F)
Dew point-7.8°C (18.0°F)
Winds Calm
Visibility10 mi. (16.1 km)
Clouds Scattered clouds 11,000 ft. (3,353 m)
Altimeter30.22 in.Hg (1023 mB)
Relative humidity60 %
Density altitude-2,289 ft. (-698 m)
Sea-level pressure102.4 kPa (1024 mB, 30.24 in.Hg)
Remarks System requires maintenance
Automated weather observing station with precipitation discriminator
Flight conditions Visual Meteorological Conditions
Raw dataKORD 210651Z 00000KT 10SM SCT110 M01/M08 A3022 RMK AO2 SLP242 T10111078 $
An error has occurred. This application may no longer respond until reloaded. Reload 🗙